sensor_id;sensor_type;location;lat;lon;timestamp;temperature;humidity
85138;SHT31;75497;42.708;23.330;2024-01-15T00:01:47;-2.55;71.13
85138;SHT31;75497;42.708;23.330;2024-01-15T00:04:12;-2.55;71.31
85138;SHT31;75497;42.708;23.330;2024-01-15T00:06:38;-2.55;70.75
85138;SHT31;75497;42.708;23.330;2024-01-15T00:09:03;-2.48;70.34
85138;SHT31;75497;42.708;23.330;2024-01-15T00:11:29;-2.48;70.51
85138;SHT31;75497;42.708;23.330;2024-01-15T00:13:54;-2.65;71.22
85138;SHT31;75497;42.708;23.330;2024-01-15T00:16:20;-2.62;71.27
85138;SHT31;75497;42.708;23.330;2024-01-15T00:18:45;-2.66;71.34
85138;SHT31;75497;42.708;23.330;2024-01-15T00:21:11;-2.81;71.84
85138;SHT31;75497;42.708;23.330;2024-01-15T00:23:36;-2.94;72.35
85138;SHT31;75497;42.708;23.330;2024-01-15T00:26:02;-2.80;72.54
85138;SHT31;75497;42.708;23.330;2024-01-15T00:28:27;-2.83;72.57
85138;SHT31;75497;42.708;23.330;2024-01-15T00:30:53;-2.72;71.79
85138;SHT31;75497;42.708;23.330;2024-01-15T00:33:18;-2.76;71.78
85138;SHT31;75497;42.708;23.330;2024-01-15T00:35:44;-2.62;71.40
85138;SHT31;75497;42.708;23.330;2024-01-15T00:38:09;-2.73;70.96
85138;SHT31;75497;42.708;23.330;2024-01-15T00:40:35;-2.80;71.94
85138;SHT31;75497;42.708;23.330;2024-01-15T00:43:00;-2.65;71.09
85138;SHT31;75497;42.708;23.330;2024-01-15T00:45:27;-2.77;71.96
85138;SHT31;75497;42.708;23.330;2024-01-15T00:47:52;-2.83;72.37
85138;SHT31;75497;42.708;23.330;2024-01-15T00:50:18;-2.77;72.76
85138;SHT31;75497;42.708;23.330;2024-01-15T00:52:44;-2.66;72.60
85138;SHT31;75497;42.708;23.330;2024-01-15T00:55:09;-2.70;72.10
85138;SHT31;75497;42.708;23.330;2024-01-15T00:57:35;-2.73;72.06
85138;SHT31;75497;42.708;23.330;2024-01-15T01:00:00;-2.80;71.52
85138;SHT31;75497;42.708;23.330;2024-01-15T01:02:26;-2.77;71.41
85138;SHT31;75497;42.708;23.330;2024-01-15T01:04:51;-2.69;71.11
85138;SHT31;75497;42.708;23.330;2024-01-15T01:07:17;-2.66;71.62
85138;SHT31;75497;42.708;23.330;2024-01-15T01:09:42;-2.73;72.17
85138;SHT31;75497;42.708;23.330;2024-01-15T01:12:09;-2.60;71.95
85138;SHT31;75497;42.708;23.330;2024-01-15T01:14:35;-2.56;70.69
85138;SHT31;75497;42.708;23.330;2024-01-15T01:17:00;-2.60;70.37
85138;SHT31;75497;42.708;23.330;2024-01-15T01:19:26;-2.76;70.53
85138;SHT31;75497;42.708;23.330;2024-01-15T01:21:51;-2.91;71.50
85138;SHT31;75497;42.708;23.330;2024-01-15T01:24:17;-2.96;71.37
85138;SHT31;75497;42.708;23.330;2024-01-15T01:26:42;-2.99;71.22
85138;SHT31;75497;42.708;23.330;2024-01-15T01:29:08;-2.97;71.42
85138;SHT31;75497;42.708;23.330;2024-01-15T01:31:33;-2.86;71.38
85138;SHT31;75497;42.708;23.330;2024-01-15T01:33:59;-2.91;71.75
85138;SHT31;75497;42.708;23.330;2024-01-15T01:36:24;-3.00;72.73
85138;SHT31;75497;42.708;23.330;2024-01-15T01:38:50;-3.03;72.79
85138;SHT31;75497;42.708;23.330;2024-01-15T01:41:15;-2.84;72.74
85138;SHT31;75497;42.708;23.330;2024-01-15T01:43:41;-2.81;72.43
85138;SHT31;75497;42.708;23.330;2024-01-15T01:46:07;-2.73;72.04
85138;SHT31;75497;42.708;23.330;2024-01-15T01:48:33;-2.73;72.13
85138;SHT31;75497;42.708;23.330;2024-01-15T01:51:00;-2.68;71.78
85138;SHT31;75497;42.708;23.330;2024-01-15T01:53:27;-2.68;71.30
85138;SHT31;75497;42.708;23.330;2024-01-15T01:55:54;-2.70;71.30
85138;SHT31;75497;42.708;23.330;2024-01-15T01:58:21;-2.81;71.35
85138;SHT31;75497;42.708;23.330;2024-01-15T02:00:47;-2.90;71.60
85138;SHT31;75497;42.708;23.330;2024-01-15T02:03:13;-2.81;71.06
85138;SHT31;75497;42.708;23.330;2024-01-15T02:05:39;-3.18;71.91
85138;SHT31;75497;42.708;23.330;2024-01-15T02:08:06;-3.01;71.67
85138;SHT31;75497;42.708;23.330;2024-01-15T02:10:31;-3.05;71.63
85138;SHT31;75497;42.708;23.330;2024-01-15T02:12:57;-3.05;71.81
85138;SHT31;75497;42.708;23.330;2024-01-15T02:15:23;-2.93;71.59
85138;SHT31;75497;42.708;23.330;2024-01-15T02:20:24;-2.81;71.21
85138;SHT31;75497;42.708;23.330;2024-01-15T02:22:50;-2.75;71.28
85138;SHT31;75497;42.708;23.330;2024-01-15T02:25:15;-2.76;71.12
85138;SHT31;75497;42.708;23.330;2024-01-15T02:27:42;-2.68;70.72
85138;SHT31;75497;42.708;23.330;2024-01-15T02:30:11;-2.72;70.70
85138;SHT31;75497;42.708;23.330;2024-01-15T02:32:37;-3.01;71.28
85138;SHT31;75497;42.708;23.330;2024-01-15T02:35:02;-2.96;71.36
85138;SHT31;75497;42.708;23.330;2024-01-15T02:37:28;-3.05;72.04
85138;SHT31;75497;42.708;23.330;2024-01-15T02:39:53;-2.83;71.27
85138;SHT31;75497;42.708;23.330;2024-01-15T02:42:19;-2.84;71.11
85138;SHT31;75497;42.708;23.330;2024-01-15T02:44:44;-2.97;71.03
85138;SHT31;75497;42.708;23.330;2024-01-15T02:47:10;-3.04;71.10
85138;SHT31;75497;42.708;23.330;2024-01-15T02:49:35;-3.11;71.18
85138;SHT31;75497;42.708;23.330;2024-01-15T02:52:01;-3.18;71.03
85138;SHT31;75497;42.708;23.330;2024-01-15T02:54:26;-3.24;71.01
85138;SHT31;75497;42.708;23.330;2024-01-15T02:56:52;-3.32;71.22
85138;SHT31;75497;42.708;23.330;2024-01-15T02:59:17;-3.41;71.45
85138;SHT31;75497;42.708;23.330;2024-01-15T03:01:43;-3.32;70.98
85138;SHT31;75497;42.708;23.330;2024-01-15T03:04:08;-3.41;71.17
85138;SHT31;75497;42.708;23.330;2024-01-15T03:06:34;-3.42;71.43
85138;SHT31;75497;42.708;23.330;2024-01-15T03:08:59;-3.32;70.96
85138;SHT31;75497;42.708;23.330;2024-01-15T03:11:25;-3.38;71.21
85138;SHT31;75497;42.708;23.330;2024-01-15T03:13:50;-3.35;71.07
85138;SHT31;75497;42.708;23.330;2024-01-15T03:16:16;-3.37;71.12
85138;SHT31;75497;42.708;23.330;2024-01-15T03:18:41;-3.32;71.01
85138;SHT31;75497;42.708;23.330;2024-01-15T03:21:07;-3.34;70.81
85138;SHT31;75497;42.708;23.330;2024-01-15T03:23:32;-3.52;71.20
85138;SHT31;75497;42.708;23.330;2024-01-15T03:25:58;-3.32;70.91
85138;SHT31;75497;42.708;23.330;2024-01-15T03:28:23;-3.40;71.01
85138;SHT31;75497;42.708;23.330;2024-01-15T03:30:49;-3.44;71.37
85138;SHT31;75497;42.708;23.330;2024-01-15T03:33:15;-3.35;71.01
85138;SHT31;75497;42.708;23.330;2024-01-15T03:35:40;-3.27;70.79
85138;SHT31;75497;42.708;23.330;2024-01-15T03:38:06;-3.25;71.09
85138;SHT31;75497;42.708;23.330;2024-01-15T03:40:31;-3.55;71.58
85138;SHT31;75497;42.708;23.330;2024-01-15T03:42:57;-3.42;71.97
85138;SHT31;75497;42.708;23.330;2024-01-15T03:45:22;-3.28;71.52
85138;SHT31;75497;42.708;23.330;2024-01-15T03:47:48;-3.20;70.80
85138;SHT31;75497;42.708;23.330;2024-01-15T03:50:13;-3.08;70.62
85138;SHT31;75497;42.708;23.330;2024-01-15T03:52:39;-3.21;71.30
85138;SHT31;75497;42.708;23.330;2024-01-15T03:55:05;-3.08;70.95
85138;SHT31;75497;42.708;23.330;2024-01-15T03:57:30;-3.11;70.87
85138;SHT31;75497;42.708;23.330;2024-01-15T03:59:56;-3.04;70.34
85138;SHT31;75497;42.708;23.330;2024-01-15T04:02:21;-3.00;70.31
85138;SHT31;75497;42.708;23.330;2024-01-15T04:04:46;-3.13;70.87
85138;SHT31;75497;42.708;23.330;2024-01-15T04:07:12;-3.15;70.83
85138;SHT31;75497;42.708;23.330;2024-01-15T04:09:38;-3.04;70.40
85138;SHT31;75497;42.708;23.330;2024-01-15T04:12:03;-3.15;70.65
85138;SHT31;75497;42.708;23.330;2024-01-15T04:14:29;-3.32;70.97
85138;SHT31;75497;42.708;23.330;2024-01-15T04:16:54;-3.25;70.26
85138;SHT31;75497;42.708;23.330;2024-01-15T04:19:20;-3.27;70.19
85138;SHT31;75497;42.708;23.330;2024-01-15T04:21:45;-3.15;69.81
85138;SHT31;75497;42.708;23.330;2024-01-15T04:24:11;-3.22;69.76
85138;SHT31;75497;42.708;23.330;2024-01-15T04:26:36;-3.35;70.04
85138;SHT31;75497;42.708;23.330;2024-01-15T04:29:02;-3.30;69.63
85138;SHT31;75497;42.708;23.330;2024-01-15T04:31:27;-3.42;70.41
85138;SHT31;75497;42.708;23.330;2024-01-15T04:33:53;-3.50;70.67
85138;SHT31;75497;42.708;23.330;2024-01-15T04:36:18;-3.27;70.35
85138;SHT31;75497;42.708;23.330;2024-01-15T04:38:44;-3.32;70.42
85138;SHT31;75497;42.708;23.330;2024-01-15T04:41:14;-3.42;70.38
85138;SHT31;75497;42.708;23.330;2024-01-15T04:43:40;-3.38;70.24
85138;SHT31;75497;42.708;23.330;2024-01-15T04:46:06;-3.40;70.65
85138;SHT31;75497;42.708;23.330;2024-01-15T04:48:32;-3.41;70.65
85138;SHT31;75497;42.708;23.330;2024-01-15T04:50:58;-3.42;70.63
85138;SHT31;75497;42.708;23.330;2024-01-15T04:53:23;-3.24;70.02
85138;SHT31;75497;42.708;23.330;2024-01-15T04:55:49;-3.25;69.72
85138;SHT31;75497;42.708;23.330;2024-01-15T04:58:14;-3.34;70.11
85138;SHT31;75497;42.708;23.330;2024-01-15T05:00:40;-3.38;70.65
85138;SHT31;75497;42.708;23.330;2024-01-15T05:03:05;-3.37;70.70
85138;SHT31;75497;42.708;23.330;2024-01-15T05:05:31;-3.37;70.65
85138;SHT31;75497;42.708;23.330;2024-01-15T05:07:56;-3.40;70.85
85138;SHT31;75497;42.708;23.330;2024-01-15T05:10:21;-3.41;70.91
85138;SHT31;75497;42.708;23.330;2024-01-15T05:12:47;-3.34;70.78
85138;SHT31;75497;42.708;23.330;2024-01-15T05:15:12;-3.25;70.31
85138;SHT31;75497;42.708;23.330;2024-01-15T05:17:38;-3.37;70.82
85138;SHT31;75497;42.708;23.330;2024-01-15T05:20:04;-3.38;70.70
85138;SHT31;75497;42.708;23.330;2024-01-15T05:22:30;-3.44;70.95
85138;SHT31;75497;42.708;23.330;2024-01-15T05:24:55;-3.42;71.16
85138;SHT31;75497;42.708;23.330;2024-01-15T05:27:21;-3.38;71.18
85138;SHT31;75497;42.708;23.330;2024-01-15T05:29:46;-3.41;71.50
85138;SHT31;75497;42.708;23.330;2024-01-15T05:32:12;-3.30;71.20
85138;SHT31;75497;42.708;23.330;2024-01-15T05:34:37;-3.27;71.18
85138;SHT31;75497;42.708;23.330;2024-01-15T05:37:03;-3.18;71.08
85138;SHT31;75497;42.708;23.330;2024-01-15T05:39:28;-3.13;70.73
85138;SHT31;75497;42.708;23.330;2024-01-15T05:41:54;-3.31;71.22
85138;SHT31;75497;42.708;23.330;2024-01-15T05:44:19;-3.31;71.28
85138;SHT31;75497;42.708;23.330;2024-01-15T05:46:45;-3.32;71.44
85138;SHT31;75497;42.708;23.330;2024-01-15T05:49:10;-3.27;71.44
85138;SHT31;75497;42.708;23.330;2024-01-15T05:51:36;-3.25;71.07
85138;SHT31;75497;42.708;23.330;2024-01-15T05:54:01;-3.22;70.73
85138;SHT31;75497;42.708;23.330;2024-01-15T05:56:27;-3.31;71.06
85138;SHT31;75497;42.708;23.330;2024-01-15T05:58:52;-3.15;70.61
85138;SHT31;75497;42.708;23.330;2024-01-15T06:01:18;-3.31;71.27
85138;SHT31;75497;42.708;23.330;2024-01-15T06:03:43;-3.51;72.25
85138;SHT31;75497;42.708;23.330;2024-01-15T06:06:09;-3.50;72.54
85138;SHT31;75497;42.708;23.330;2024-01-15T06:08:34;-3.55;73.51
85138;SHT31;75497;42.708;23.330;2024-01-15T06:11:00;-3.40;73.05
85138;SHT31;75497;42.708;23.330;2024-01-15T06:13:25;-3.38;73.17
85138;SHT31;75497;42.708;23.330;2024-01-15T06:15:51;-3.24;72.73
85138;SHT31;75497;42.708;23.330;2024-01-15T06:18:16;-3.04;71.90
85138;SHT31;75497;42.708;23.330;2024-01-15T06:20:42;-3.00;71.97
85138;SHT31;75497;42.708;23.330;2024-01-15T06:23:07;-2.87;71.89
85138;SHT31;75497;42.708;23.330;2024-01-15T06:25:33;-2.75;71.90
85138;SHT31;75497;42.708;23.330;2024-01-15T06:27:59;-2.53;71.17
85138;SHT31;75497;42.708;23.330;2024-01-15T06:30:24;-2.60;71.88
85138;SHT31;75497;42.708;23.330;2024-01-15T06:32:50;-2.59;72.34
85138;SHT31;75497;42.708;23.330;2024-01-15T06:35:15;-2.39;72.00
85138;SHT31;75497;42.708;23.330;2024-01-15T06:37:41;-2.24;71.77
85138;SHT31;75497;42.708;23.330;2024-01-15T06:40:07;-2.05;70.80
85138;SHT31;75497;42.708;23.330;2024-01-15T06:42:33;-1.84;69.87
85138;SHT31;75497;42.708;23.330;2024-01-15T06:44:58;-1.78;70.03
85138;SHT31;75497;42.708;23.330;2024-01-15T06:47:24;-1.53;69.42
85138;SHT31;75497;42.708;23.330;2024-01-15T06:49:49;-1.56;69.00
85138;SHT31;75497;42.708;23.330;2024-01-15T06:52:17;-1.39;68.51
85138;SHT31;75497;42.708;23.330;2024-01-15T06:54:42;-1.29;68.27
85138;SHT31;75497;42.708;23.330;2024-01-15T06:57:08;-1.32;68.18
85138;SHT31;75497;42.708;23.330;2024-01-15T06:59:34;-1.36;68.02
85138;SHT31;75497;42.708;23.330;2024-01-15T07:02:00;-1.24;67.45
85138;SHT31;75497;42.708;23.330;2024-01-15T07:04:26;-1.31;67.87
85138;SHT31;75497;42.708;23.330;2024-01-15T07:06:51;-1.20;67.74
85138;SHT31;75497;42.708;23.330;2024-01-15T07:09:17;-1.38;67.99
85138;SHT31;75497;42.708;23.330;2024-01-15T07:11:46;-1.38;67.84
85138;SHT31;75497;42.708;23.330;2024-01-15T07:14:12;-1.43;68.37
85138;SHT31;75497;42.708;23.330;2024-01-15T07:16:37;-1.29;68.06
85138;SHT31;75497;42.708;23.330;2024-01-15T07:19:03;-1.50;67.56
85138;SHT31;75497;42.708;23.330;2024-01-15T07:21:28;-1.63;68.92
85138;SHT31;75497;42.708;23.330;2024-01-15T07:23:55;-1.71;69.26
85138;SHT31;75497;42.708;23.330;2024-01-15T07:26:20;-1.63;69.54
85138;SHT31;75497;42.708;23.330;2024-01-15T07:28:46;-1.34;69.09
85138;SHT31;75497;42.708;23.330;2024-01-15T07:31:12;-1.38;68.82
85138;SHT31;75497;42.708;23.330;2024-01-15T07:33:38;-1.16;68.46
85138;SHT31;75497;42.708;23.330;2024-01-15T07:36:03;-1.06;68.49
85138;SHT31;75497;42.708;23.330;2024-01-15T07:38:29;-0.98;68.49
85138;SHT31;75497;42.708;23.330;2024-01-15T07:40:54;-0.96;68.26
85138;SHT31;75497;42.708;23.330;2024-01-15T07:43:20;-0.83;68.07
85138;SHT31;75497;42.708;23.330;2024-01-15T07:45:46;-0.78;67.29
85138;SHT31;75497;42.708;23.330;2024-01-15T07:48:11;-0.64;67.36
85138;SHT31;75497;42.708;23.330;2024-01-15T07:50:37;-0.67;67.47
85138;SHT31;75497;42.708;23.330;2024-01-15T07:53:03;-0.84;67.77
85138;SHT31;75497;42.708;23.330;2024-01-15T07:55:29;-0.73;67.09
85138;SHT31;75497;42.708;23.330;2024-01-15T07:57:54;-0.74;66.99
85138;SHT31;75497;42.708;23.330;2024-01-15T08:00:24;-0.56;66.16
85138;SHT31;75497;42.708;23.330;2024-01-15T08:02:49;-0.64;66.31
85138;SHT31;75497;42.708;23.330;2024-01-15T08:05:16;-0.74;67.26
85138;SHT31;75497;42.708;23.330;2024-01-15T08:07:42;-0.71;67.41
85138;SHT31;75497;42.708;23.330;2024-01-15T08:10:07;-0.50;66.82
85138;SHT31;75497;42.708;23.330;2024-01-15T08:12:33;-0.30;66.13
85138;SHT31;75497;42.708;23.330;2024-01-15T08:14:58;-0.29;65.77
85138;SHT31;75497;42.708;23.330;2024-01-15T08:17:24;-0.37;66.39
85138;SHT31;75497;42.708;23.330;2024-01-15T08:19:54;-0.10;65.16
85138;SHT31;75497;42.708;23.330;2024-01-15T08:22:19;-0.05;64.27
85138;SHT31;75497;42.708;23.330;2024-01-15T08:24:45;0.04;64.27
85138;SHT31;75497;42.708;23.330;2024-01-15T08:27:11;0.04;64.59
85138;SHT31;75497;42.708;23.330;2024-01-15T08:29:36;0.26;64.20
85138;SHT31;75497;42.708;23.330;2024-01-15T08:32:02;0.36;64.71
85138;SHT31;75497;42.708;23.330;2024-01-15T08:34:27;0.97;63.32
85138;SHT31;75497;42.708;23.330;2024-01-15T08:36:53;1.66;62.06
85138;SHT31;75497;42.708;23.330;2024-01-15T08:39:19;2.20;59.48
85138;SHT31;75497;42.708;23.330;2024-01-15T08:41:45;2.51;58.05
85138;SHT31;75497;42.708;23.330;2024-01-15T08:44:12;2.74;56.57
85138;SHT31;75497;42.708;23.330;2024-01-15T08:46:37;2.88;56.29
85138;SHT31;75497;42.708;23.330;2024-01-15T08:49:03;2.87;55.82
85138;SHT31;75497;42.708;23.330;2024-01-15T08:51:29;2.68;56.35
85138;SHT31;75497;42.708;23.330;2024-01-15T08:53:56;2.92;56.12
85138;SHT31;75497;42.708;23.330;2024-01-15T08:56:21;2.70;56.05
85138;SHT31;75497;42.708;23.330;2024-01-15T08:58:47;2.66;56.58
85138;SHT31;75497;42.708;23.330;2024-01-15T09:01:13;2.51;56.24
85138;SHT31;75497;42.708;23.330;2024-01-15T09:03:39;2.09;57.52
85138;SHT31;75497;42.708;23.330;2024-01-15T09:06:05;1.73;59.04
85138;SHT31;75497;42.708;23.330;2024-01-15T09:08:31;1.96;58.21
85138;SHT31;75497;42.708;23.330;2024-01-15T09:10:56;1.95;58.27
85138;SHT31;75497;42.708;23.330;2024-01-15T09:13:22;2.13;58.25
85138;SHT31;75497;42.708;23.330;2024-01-15T09:15:47;2.36;57.65
85138;SHT31;75497;42.708;23.330;2024-01-15T09:18:13;2.68;57.12
85138;SHT31;75497;42.708;23.330;2024-01-15T09:20:38;2.57;57.21
85138;SHT31;75497;42.708;23.330;2024-01-15T09:23:04;2.78;56.79
85138;SHT31;75497;42.708;23.330;2024-01-15T09:25:29;2.98;56.37
85138;SHT31;75497;42.708;23.330;2024-01-15T09:27:55;3.02;55.78
85138;SHT31;75497;42.708;23.330;2024-01-15T09:30:20;2.82;56.64
85138;SHT31;75497;42.708;23.330;2024-01-15T09:32:46;2.62;56.80
85138;SHT31;75497;42.708;23.330;2024-01-15T09:35:11;2.71;56.79
85138;SHT31;75497;42.708;23.330;2024-01-15T09:37:37;2.62;57.10
85138;SHT31;75497;42.708;23.330;2024-01-15T09:40:05;2.61;57.60
85138;SHT31;75497;42.708;23.330;2024-01-15T09:42:32;2.87;56.65
85138;SHT31;75497;42.708;23.330;2024-01-15T09:44:58;2.57;56.44
85138;SHT31;75497;42.708;23.330;2024-01-15T09:47:23;2.60;56.73
85138;SHT31;75497;42.708;23.330;2024-01-15T09:49:50;2.55;56.85
85138;SHT31;75497;42.708;23.330;2024-01-15T09:52:16;2.66;56.70
85138;SHT31;75497;42.708;23.330;2024-01-15T09:54:46;2.87;56.12
85138;SHT31;75497;42.708;23.330;2024-01-15T09:57:12;2.72;56.45
85138;SHT31;75497;42.708;23.330;2024-01-15T09:59:38;2.98;56.09
85138;SHT31;75497;42.708;23.330;2024-01-15T10:02:06;3.01;55.76
85138;SHT31;75497;42.708;23.330;2024-01-15T10:04:32;2.99;56.31
85138;SHT31;75497;42.708;23.330;2024-01-15T10:07:00;2.85;56.55
85138;SHT31;75497;42.708;23.330;2024-01-15T10:09:26;2.70;57.45
85138;SHT31;75497;42.708;23.330;2024-01-15T10:11:52;2.68;57.54
85138;SHT31;75497;42.708;23.330;2024-01-15T10:14:18;2.80;57.37
85138;SHT31;75497;42.708;23.330;2024-01-15T10:16:43;3.15;56.29
85138;SHT31;75497;42.708;23.330;2024-01-15T10:19:09;3.62;55.12
85138;SHT31;75497;42.708;23.330;2024-01-15T10:21:35;4.28;53.21
85138;SHT31;75497;42.708;23.330;2024-01-15T10:24:01;4.75;52.15
85138;SHT31;75497;42.708;23.330;2024-01-15T10:26:28;6.41;48.84
85138;SHT31;75497;42.708;23.330;2024-01-15T10:28:54;7.20;45.68
85138;SHT31;75497;42.708;23.330;2024-01-15T10:31:19;6.14;46.65
85138;SHT31;75497;42.708;23.330;2024-01-15T10:33:47;6.47;47.16
85138;SHT31;75497;42.708;23.330;2024-01-15T10:36:15;6.29;47.03
85138;SHT31;75497;42.708;23.330;2024-01-15T10:38:42;6.47;46.94
85138;SHT31;75497;42.708;23.330;2024-01-15T10:41:08;6.02;47.67
85138;SHT31;75497;42.708;23.330;2024-01-15T10:43:33;6.26;47.15
85138;SHT31;75497;42.708;23.330;2024-01-15T10:45:59;7.46;44.48
85138;SHT31;75497;42.708;23.330;2024-01-15T10:48:25;8.24;42.58
85138;SHT31;75497;42.708;23.330;2024-01-15T10:50:53;8.49;41.56
85138;SHT31;75497;42.708;23.330;2024-01-15T10:53:19;8.67;40.60
85138;SHT31;75497;42.708;23.330;2024-01-15T10:55:46;8.87;40.92
85138;SHT31;75497;42.708;23.330;2024-01-15T10:58:14;8.15;42.53
85138;SHT31;75497;42.708;23.330;2024-01-15T11:00:40;7.76;42.13
85138;SHT31;75497;42.708;23.330;2024-01-15T11:03:06;7.32;43.50
85138;SHT31;75497;42.708;23.330;2024-01-15T11:05:38;7.59;43.24
85138;SHT31;75497;42.708;23.330;2024-01-15T11:08:06;7.33;43.71
85138;SHT31;75497;42.708;23.330;2024-01-15T11:10:45;7.43;44.17
85138;SHT31;75497;42.708;23.330;2024-01-15T11:16:03;7.57;43.66
85138;SHT31;75497;42.708;23.330;2024-01-15T11:18:32;6.74;44.63
85138;SHT31;75497;42.708;23.330;2024-01-15T11:23:47;7.42;44.12
85138;SHT31;75497;42.708;23.330;2024-01-15T11:28:59;7.66;43.00
85138;SHT31;75497;42.708;23.330;2024-01-15T11:34:06;7.67;43.31
85138;SHT31;75497;42.708;23.330;2024-01-15T11:41:59;7.11;44.34
85138;SHT31;75497;42.708;23.330;2024-01-15T11:44:25;7.15;43.94
85138;SHT31;75497;42.708;23.330;2024-01-15T11:46:58;7.26;43.90
85138;SHT31;75497;42.708;23.330;2024-01-15T11:50:02;7.22;44.55
85138;SHT31;75497;42.708;23.330;2024-01-15T11:52:35;6.89;45.40
85138;SHT31;75497;42.708;23.330;2024-01-15T11:55:22;7.02;44.93
85138;SHT31;75497;42.708;23.330;2024-01-15T11:57:53;6.80;45.22
85138;SHT31;75497;42.708;23.330;2024-01-15T12:00:23;6.78;44.96
85138;SHT31;75497;42.708;23.330;2024-01-15T12:02:49;6.63;45.20
85138;SHT31;75497;42.708;23.330;2024-01-15T12:05:17;6.44;46.25
85138;SHT31;75497;42.708;23.330;2024-01-15T12:07:44;6.24;46.49
85138;SHT31;75497;42.708;23.330;2024-01-15T12:10:28;6.00;47.07
85138;SHT31;75497;42.708;23.330;2024-01-15T12:13:00;6.03;47.52
85138;SHT31;75497;42.708;23.330;2024-01-15T12:15:30;6.09;47.79
85138;SHT31;75497;42.708;23.330;2024-01-15T12:17:57;6.33;47.64
85138;SHT31;75497;42.708;23.330;2024-01-15T12:20:24;6.37;47.30
85138;SHT31;75497;42.708;23.330;2024-01-15T12:22:50;6.45;47.30
85138;SHT31;75497;42.708;23.330;2024-01-15T12:25:16;6.36;47.67
85138;SHT31;75497;42.708;23.330;2024-01-15T12:27:41;6.23;48.29
85138;SHT31;75497;42.708;23.330;2024-01-15T12:30:10;6.14;47.90
85138;SHT31;75497;42.708;23.330;2024-01-15T12:32:36;6.09;47.99
85138;SHT31;75497;42.708;23.330;2024-01-15T12:35:02;6.24;48.12
85138;SHT31;75497;42.708;23.330;2024-01-15T12:37:29;6.26;47.12
85138;SHT31;75497;42.708;23.330;2024-01-15T12:39:54;6.38;47.23
85138;SHT31;75497;42.708;23.330;2024-01-15T12:42:23;6.24;47.22
85138;SHT31;75497;42.708;23.330;2024-01-15T12:44:48;6.09;47.85
85138;SHT31;75497;42.708;23.330;2024-01-15T12:47:14;6.12;47.93
85138;SHT31;75497;42.708;23.330;2024-01-15T12:49:42;6.02;48.39
85138;SHT31;75497;42.708;23.330;2024-01-15T12:52:09;6.14;48.75
85138;SHT31;75497;42.708;23.330;2024-01-15T12:54:35;6.12;48.82
85138;SHT31;75497;42.708;23.330;2024-01-15T12:57:00;5.82;48.42
85138;SHT31;75497;42.708;23.330;2024-01-15T12:59:26;5.86;48.67
85138;SHT31;75497;42.708;23.330;2024-01-15T13:01:51;5.89;48.53
85138;SHT31;75497;42.708;23.330;2024-01-15T13:04:24;5.79;49.09
85138;SHT31;75497;42.708;23.330;2024-01-15T13:06:50;5.78;48.89
85138;SHT31;75497;42.708;23.330;2024-01-15T13:09:16;5.82;48.89
85138;SHT31;75497;42.708;23.330;2024-01-15T13:11:45;5.83;48.84
85138;SHT31;75497;42.708;23.330;2024-01-15T13:14:11;5.68;49.34
85138;SHT31;75497;42.708;23.330;2024-01-15T13:16:41;5.41;50.47
85138;SHT31;75497;42.708;23.330;2024-01-15T13:19:08;5.38;50.58
85138;SHT31;75497;42.708;23.330;2024-01-15T13:21:34;5.49;50.30
85138;SHT31;75497;42.708;23.330;2024-01-15T13:24:00;5.66;50.48
85138;SHT31;75497;42.708;23.330;2024-01-15T13:26:25;5.90;49.20
85138;SHT31;75497;42.708;23.330;2024-01-15T13:28:51;5.73;49.51
85138;SHT31;75497;42.708;23.330;2024-01-15T13:31:16;5.82;49.86
85138;SHT31;75497;42.708;23.330;2024-01-15T13:33:42;5.98;50.08
85138;SHT31;75497;42.708;23.330;2024-01-15T13:36:08;5.90;49.92
85138;SHT31;75497;42.708;23.330;2024-01-15T13:38:36;5.81;49.95
85138;SHT31;75497;42.708;23.330;2024-01-15T13:41:04;5.63;50.23
85138;SHT31;75497;42.708;23.330;2024-01-15T13:43:30;5.41;50.99
85138;SHT31;75497;42.708;23.330;2024-01-15T13:45:56;5.47;50.66
85138;SHT31;75497;42.708;23.330;2024-01-15T13:48:21;5.52;50.49
85138;SHT31;75497;42.708;23.330;2024-01-15T13:50:47;5.49;50.84
85138;SHT31;75497;42.708;23.330;2024-01-15T13:53:12;5.75;50.89
85138;SHT31;75497;42.708;23.330;2024-01-15T13:55:38;5.85;50.10
85138;SHT31;75497;42.708;23.330;2024-01-15T13:58:03;5.63;50.18
85138;SHT31;75497;42.708;23.330;2024-01-15T14:00:31;5.76;50.20
85138;SHT31;75497;42.708;23.330;2024-01-15T14:02:57;5.81;50.54
85138;SHT31;75497;42.708;23.330;2024-01-15T14:05:23;5.69;50.52
85138;SHT31;75497;42.708;23.330;2024-01-15T14:07:49;5.71;50.54
85138;SHT31;75497;42.708;23.330;2024-01-15T14:10:14;5.63;51.35
85138;SHT31;75497;42.708;23.330;2024-01-15T14:12:40;5.69;51.87
85138;SHT31;75497;42.708;23.330;2024-01-15T14:15:06;5.89;51.65
85138;SHT31;75497;42.708;23.330;2024-01-15T14:17:32;5.85;50.86
85138;SHT31;75497;42.708;23.330;2024-01-15T14:19:57;5.83;51.10
85138;SHT31;75497;42.708;23.330;2024-01-15T14:22:23;5.73;51.16
85138;SHT31;75497;42.708;23.330;2024-01-15T14:24:48;5.66;51.30
85138;SHT31;75497;42.708;23.330;2024-01-15T14:27:15;5.65;51.42
85138;SHT31;75497;42.708;23.330;2024-01-15T14:29:40;5.76;52.11
85138;SHT31;75497;42.708;23.330;2024-01-15T14:32:06;5.85;52.41
85138;SHT31;75497;42.708;23.330;2024-01-15T14:34:32;5.82;52.90
85138;SHT31;75497;42.708;23.330;2024-01-15T14:36:57;5.82;52.90
85138;SHT31;75497;42.708;23.330;2024-01-15T14:39:23;5.75;53.23
85138;SHT31;75497;42.708;23.330;2024-01-15T14:41:49;5.72;53.44
85138;SHT31;75497;42.708;23.330;2024-01-15T14:44:14;5.65;53.92
85138;SHT31;75497;42.708;23.330;2024-01-15T14:46:40;5.66;54.30
85138;SHT31;75497;42.708;23.330;2024-01-15T14:49:06;5.68;53.82
85138;SHT31;75497;42.708;23.330;2024-01-15T14:51:32;5.62;53.82
85138;SHT31;75497;42.708;23.330;2024-01-15T14:53:57;5.61;52.77
85138;SHT31;75497;42.708;23.330;2024-01-15T14:56:23;5.51;53.20
85138;SHT31;75497;42.708;23.330;2024-01-15T14:58:49;5.42;52.59
85138;SHT31;75497;42.708;23.330;2024-01-15T15:01:15;5.48;52.76
85138;SHT31;75497;42.708;23.330;2024-01-15T15:03:40;5.42;53.24
85138;SHT31;75497;42.708;23.330;2024-01-15T15:06:06;5.24;53.86
85138;SHT31;75497;42.708;23.330;2024-01-15T15:08:35;5.20;54.51
85138;SHT31;75497;42.708;23.330;2024-01-15T15:11:01;5.38;54.01
85138;SHT31;75497;42.708;23.330;2024-01-15T15:13:26;5.10;53.89
85138;SHT31;75497;42.708;23.330;2024-01-15T15:15:53;5.21;53.89
85138;SHT31;75497;42.708;23.330;2024-01-15T15:18:21;5.20;54.41
85138;SHT31;75497;42.708;23.330;2024-01-15T15:20:47;4.90;54.30
85138;SHT31;75497;42.708;23.330;2024-01-15T15:23:13;4.53;56.30
85138;SHT31;75497;42.708;23.330;2024-01-15T15:25:39;4.26;56.64
85138;SHT31;75497;42.708;23.330;2024-01-15T15:28:04;4.39;57.24
85138;SHT31;75497;42.708;23.330;2024-01-15T15:30:31;4.46;56.86
85138;SHT31;75497;42.708;23.330;2024-01-15T15:32:56;4.58;56.86
85138;SHT31;75497;42.708;23.330;2024-01-15T15:35:22;4.36;57.25